createdAt,value
2019-03-02T00:00:37.811Z,1.20
2019-03-02T00:03:25.607Z,1.43
2019-03-02T00:06:13.795Z,1.20
2019-03-02T00:09:01.950Z,1.20
2019-03-02T00:11:52.926Z,0.87
2019-03-02T00:14:40.354Z,1.30
2019-03-02T00:17:28.889Z,0.97
2019-03-02T00:20:18.110Z,0.90
2019-03-02T00:23:06.765Z,1.10
2019-03-02T00:25:55.261Z,0.80
2019-03-02T00:28:43.395Z,1.07
2019-03-02T00:31:33.258Z,1.07
2019-03-02T00:34:22.127Z,0.90
2019-03-02T00:37:10.550Z,1.43
2019-03-02T00:39:58.774Z,0.97
2019-03-02T00:42:48.737Z,1.30
2019-03-02T00:45:36.836Z,1.00
2019-03-02T00:48:25.406Z,0.93
2019-03-02T00:51:13.593Z,1.10
2019-03-02T00:54:01.580Z,1.40
2019-03-02T00:56:50.053Z,1.10
2019-03-02T00:59:39.379Z,1.30
2019-03-02T01:02:27.995Z,1.00
2019-03-02T01:05:16.367Z,0.90
2019-03-02T01:08:04.873Z,1.10
2019-03-02T01:10:54.828Z,1.00
2019-03-02T01:13:43.318Z,1.00
2019-03-02T01:16:31.568Z,1.00
2019-03-02T01:19:20.116Z,1.00
2019-03-02T01:22:08.499Z,0.97
2019-03-02T01:24:56.796Z,1.10
2019-03-02T01:27:45.105Z,1.43
2019-03-02T01:30:33.412Z,0.90
2019-03-02T01:33:25.142Z,0.93
2019-03-02T01:36:13.201Z,0.80
2019-03-02T01:39:01.712Z,0.90
2019-03-02T01:41:51.027Z,1.00
2019-03-02T01:44:39.744Z,0.80
2019-03-02T01:47:27.868Z,1.00
2019-03-02T01:50:17.290Z,1.00
2019-03-02T01:53:06.564Z,1.03
2019-03-02T01:55:55.262Z,1.03
2019-03-02T01:58:43.822Z,1.10
2019-03-02T02:01:32.191Z,1.27
2019-03-02T02:04:22.691Z,1.20
2019-03-02T02:07:14.388Z,1.10
2019-03-02T02:10:01.656Z,1.20
2019-03-02T02:12:50.275Z,1.17
2019-03-02T02:15:38.871Z,1.67
2019-03-02T02:18:27.786Z,0.90
2019-03-02T02:21:16.909Z,1.20
2019-03-02T02:24:05.765Z,1.10
2019-03-02T02:26:54.247Z,1.40
2019-03-02T02:29:43.502Z,0.80
2019-03-02T02:32:32.786Z,1.13
2019-03-02T02:35:21.177Z,1.00
2019-03-02T02:38:11.365Z,1.40
2019-03-02T02:40:59.756Z,0.87
2019-03-02T02:43:48.028Z,0.90
2019-03-02T02:46:36.500Z,0.90
2019-03-02T02:49:24.986Z,1.33
2019-03-02T02:52:13.177Z,1.00
2019-03-02T02:55:02.430Z,1.47
2019-03-02T02:57:51.322Z,1.07
2019-03-02T03:00:39.359Z,1.00
2019-03-02T03:03:27.330Z,1.00
2019-03-02T03:06:15.764Z,1.33
2019-03-02T03:09:09.771Z,1.70
2019-03-02T03:11:56.904Z,1.23
2019-03-02T03:14:45.101Z,1.20
2019-03-02T03:17:33.832Z,0.90
2019-03-02T03:20:22.135Z,1.20
2019-03-02T03:23:10.434Z,1.13
2019-03-02T03:25:58.802Z,1.00
2019-03-02T03:28:47.322Z,0.90
2019-03-02T03:31:35.464Z,1.10
2019-03-02T03:34:29.885Z,0.90
2019-03-02T03:37:14.972Z,1.10
2019-03-02T03:40:05.122Z,1.20
2019-03-02T03:43:02.570Z,0.80
2019-03-02T03:45:45.067Z,1.20
2019-03-02T03:48:33.693Z,0.90
2019-03-02T03:51:26.054Z,1.20
2019-03-02T03:54:11.929Z,1.07
2019-03-02T03:57:00.524Z,1.13
2019-03-02T03:59:53.552Z,0.90
2019-03-02T04:02:39.175Z,1.20
2019-03-02T04:05:27.483Z,0.97
2019-03-02T04:08:15.663Z,1.10
2019-03-02T04:11:04.591Z,1.40
2019-03-02T04:13:54.172Z,1.10
2019-03-02T04:16:42.562Z,1.10
2019-03-02T04:19:35.977Z,0.90
2019-03-02T04:22:24.503Z,1.13
2019-03-02T04:25:18.038Z,1.10
2019-03-02T04:28:02.690Z,1.30
2019-03-02T04:30:51.254Z,0.80
2019-03-02T04:33:43.348Z,1.00
2019-03-02T04:36:29.162Z,1.03
2019-03-02T04:39:18.375Z,1.07
2019-03-02T04:42:06.462Z,1.33
2019-03-02T04:44:54.508Z,1.10
2019-03-02T04:47:42.835Z,1.03
2019-03-02T04:50:30.766Z,1.17
2019-03-02T04:53:21.510Z,1.00
2019-03-02T04:56:08.614Z,1.23
2019-03-02T04:58:56.995Z,1.30
2019-03-02T05:01:46.296Z,1.20
2019-03-02T05:04:34.477Z,1.30
2019-03-02T05:07:23.161Z,1.13
2019-03-02T05:10:12.194Z,1.30
2019-03-02T05:13:00.822Z,1.13
2019-03-02T05:15:51.981Z,0.87
2019-03-02T05:18:38.562Z,1.00
2019-03-02T05:21:26.924Z,1.03
2019-03-02T05:24:15.300Z,1.13
2019-03-02T05:27:03.616Z,1.00
2019-03-02T05:29:54.445Z,1.30
2019-03-02T05:32:41.392Z,1.20
2019-03-02T05:35:29.627Z,1.50
2019-03-02T05:38:17.853Z,1.00
2019-03-02T05:41:06.174Z,0.93
2019-03-02T05:43:54.340Z,1.23
2019-03-02T05:46:42.556Z,1.30
2019-03-02T05:49:30.674Z,1.03
2019-03-02T05:52:18.869Z,1.00
2019-03-02T05:55:07.393Z,0.90
2019-03-02T05:57:55.548Z,1.33
2019-03-02T06:00:43.919Z,1.30
2019-03-02T06:03:32.443Z,1.00
2019-03-02T06:06:21.084Z,1.10
2019-03-02T06:09:14.610Z,1.30
2019-03-02T06:12:02.496Z,1.10
2019-03-02T06:14:50.730Z,1.30
2019-03-02T06:17:38.971Z,1.20
2019-03-02T06:20:27.433Z,1.10
2019-03-02T06:23:15.674Z,1.20
2019-03-02T06:26:03.702Z,1.00
2019-03-02T06:28:54.553Z,1.00
2019-03-02T06:31:41.976Z,0.97
2019-03-02T06:34:30.598Z,1.00
2019-03-02T06:37:19.934Z,1.10
2019-03-02T06:40:11.007Z,1.13
2019-03-02T06:42:59.144Z,1.20
2019-03-02T06:45:47.508Z,1.00
2019-03-02T06:48:35.784Z,1.20
2019-03-02T06:51:24.196Z,1.00
2019-03-02T06:54:14.188Z,1.00
2019-03-02T06:57:02.746Z,1.20
2019-03-02T06:59:51.105Z,1.10
2019-03-02T07:02:39.628Z,1.10
2019-03-02T07:05:29.805Z,0.87
2019-03-02T07:08:17.585Z,1.13
2019-03-02T07:11:05.715Z,1.17
2019-03-02T07:13:56.351Z,1.00
2019-03-02T07:16:43.892Z,1.00
2019-03-02T07:19:33.704Z,0.83
2019-03-02T07:22:22.118Z,1.00
2019-03-02T07:25:10.274Z,1.10
2019-03-02T07:28:01.848Z,1.30
2019-03-02T07:30:48.586Z,1.00
2019-03-02T07:33:37.275Z,1.20
2019-03-02T07:36:28.074Z,1.27
2019-03-02T07:39:15.254Z,1.50
2019-03-02T07:42:03.680Z,1.20
2019-03-02T07:44:54.965Z,1.13
2019-03-02T07:47:41.846Z,1.93
2019-03-02T07:50:30.037Z,1.00
2019-03-02T07:53:18.432Z,1.60
2019-03-02T07:56:06.892Z,1.10
2019-03-02T07:58:55.805Z,1.10
2019-03-02T08:01:44.062Z,1.20
2019-03-02T08:04:35.058Z,0.93
2019-03-02T08:07:22.221Z,0.90
2019-03-02T08:10:14.519Z,1.03
2019-03-02T08:13:03.215Z,1.17
2019-03-02T08:15:51.615Z,1.23
2019-03-02T08:18:39.728Z,1.50
2019-03-02T08:21:27.968Z,1.50
2019-03-02T08:24:15.854Z,1.10
2019-03-02T08:27:04.279Z,1.30
2019-03-02T08:29:53.891Z,1.10
2019-03-02T08:32:42.465Z,1.27
2019-03-02T08:35:30.694Z,1.43
2019-03-02T08:38:19.149Z,1.40
2019-03-02T08:41:07.633Z,1.43
2019-03-02T08:43:55.857Z,1.60
2019-03-02T08:46:44.329Z,1.43
2019-03-02T08:49:32.767Z,1.43
2019-03-02T08:52:21.299Z,1.47
2019-03-02T08:55:12.348Z,1.50
2019-03-02T08:58:00.677Z,1.60
2019-03-02T09:00:55.272Z,6.00
2019-03-02T09:03:44.038Z,9.47
2019-03-02T09:06:34.877Z,8.47
2019-03-02T09:09:27.626Z,8.80
2019-03-02T09:12:17.875Z,8.73
2019-03-02T09:15:08.994Z,8.80
2019-03-02T09:17:58.052Z,5.80
2019-03-02T09:20:46.918Z,5.80
2019-03-02T09:23:36.218Z,5.80
2019-03-02T09:26:25.154Z,4.47
2019-03-02T09:29:16.923Z,4.30
2019-03-02T09:32:05.428Z,3.90
2019-03-02T09:34:54.954Z,3.20
2019-03-02T09:37:48.891Z,3.33
2019-03-02T09:40:39.257Z,2.40
2019-03-02T09:43:27.330Z,2.60
2019-03-02T09:46:15.504Z,2.90
2019-03-02T09:49:03.995Z,2.87
2019-03-02T09:51:52.494Z,2.17
2019-03-02T09:54:40.734Z,2.53
2019-03-02T09:57:30.106Z,2.43
2019-03-02T10:00:29.341Z,3.33
2019-03-02T10:03:17.725Z,1.80
2019-03-02T10:06:06.214Z,2.20
2019-03-02T10:08:37.776Z,2.20
2019-03-02T10:11:08.422Z,1.80
2019-03-02T10:13:39.069Z,2.13
2019-03-02T10:16:09.765Z,1.73
2019-03-02T10:18:40.421Z,2.63
2019-03-02T10:21:11.050Z,1.80
2019-03-02T10:23:42.029Z,2.10
2019-03-02T10:26:13.426Z,1.90
2019-03-02T10:28:44.079Z,2.70
2019-03-02T10:31:14.868Z,2.27
2019-03-02T10:33:45.616Z,2.60
2019-03-02T10:36:16.243Z,1.60
2019-03-02T10:39:06.129Z,3.00
2019-03-02T10:41:56.951Z,2.90
2019-03-02T10:44:44.679Z,2.37
2019-03-02T10:47:15.315Z,1.87
2019-03-02T10:49:48.374Z,1.80
2019-03-02T10:52:19.997Z,2.23
2019-03-02T10:54:50.662Z,1.93
2019-03-02T10:57:21.374Z,1.60
2019-03-02T10:59:53.132Z,1.30
2019-03-02T11:02:25.814Z,1.90
2019-03-02T11:04:58.051Z,1.50
2019-03-02T11:07:36.491Z,1.90
2019-03-02T11:10:16.656Z,1.70
2019-03-02T11:13:23.865Z,1.33
2019-03-02T11:16:13.532Z,1.30
2019-03-02T11:19:04.235Z,1.70
2019-03-02T11:22:15.055Z,1.43
2019-03-02T11:25:06.791Z,1.67
2019-03-02T11:27:59.687Z,1.40
2019-03-02T11:30:49.907Z,1.10
2019-03-02T11:33:55.722Z,1.30
2019-03-02T11:37:01.589Z,1.80
2019-03-02T11:39:54.216Z,1.50
2019-03-02T11:42:49.756Z,1.60
2019-03-02T11:45:42.705Z,1.00
2019-03-02T11:48:48.378Z,1.00
2019-03-02T11:51:36.184Z,1.03
2019-03-02T11:54:42.087Z,1.00
2019-03-02T11:57:48.575Z,1.40
2019-03-02T12:00:50.513Z,1.20
2019-03-02T12:03:43.168Z,0.90
2019-03-02T12:06:47.868Z,1.00
2019-03-02T12:09:37.699Z,1.30
2019-03-02T12:12:36.609Z,0.90
2019-03-02T12:15:26.479Z,1.50
2019-03-02T12:18:28.530Z,0.90
2019-03-02T12:21:22.071Z,1.23
2019-03-02T12:24:27.710Z,1.00
2019-03-02T12:27:18.837Z,1.30
2019-03-02T12:29:51.471Z,1.27
2019-03-02T12:32:23.804Z,1.20
2019-03-02T12:35:01.911Z,0.90
2019-03-02T12:37:42.794Z,1.10
2019-03-02T12:40:23.959Z,1.30
2019-03-02T12:43:12.510Z,1.23
2019-03-02T12:45:47.346Z,0.93
2019-03-02T12:48:19.694Z,0.90
2019-03-02T12:50:54.978Z,1.00
2019-03-02T12:53:28.790Z,0.80
2019-03-02T12:56:15.784Z,1.13
2019-03-02T12:58:48.079Z,0.80
2019-03-02T13:01:29.314Z,1.00
2019-03-02T13:04:01.568Z,1.20
2019-03-02T13:06:35.912Z,0.90
2019-03-02T13:09:10.338Z,0.90
2019-03-02T13:11:54.256Z,0.80
2019-03-02T13:14:41.479Z,0.70
2019-03-02T13:17:16.578Z,1.10
2019-03-02T13:19:48.954Z,0.90
2019-03-02T13:22:26.122Z,1.10
2019-03-02T13:25:01.119Z,1.20
2019-03-02T13:27:36.119Z,1.50
2019-03-02T13:30:17.344Z,0.70
2019-03-02T13:33:10.182Z,1.10
2019-03-02T13:36:07.932Z,1.00
2019-03-02T13:39:06.511Z,0.80
2019-03-02T13:41:54.314Z,0.83
2019-03-02T13:44:44.115Z,1.00
2019-03-02T13:47:44.940Z,0.77
2019-03-02T13:50:37.057Z,0.70
2019-03-02T13:53:43.194Z,1.00
2019-03-02T13:56:48.104Z,0.83
2019-03-02T13:59:50.156Z,1.00
2019-03-02T14:02:58.327Z,0.80
2019-03-02T14:05:50.869Z,0.97
2019-03-02T14:08:44.415Z,1.00
2019-03-02T14:11:43.195Z,0.87
2019-03-02T14:14:44.899Z,0.70
2019-03-02T14:17:36.013Z,0.77
2019-03-02T14:20:28.613Z,0.80
2019-03-02T14:23:21.354Z,0.87
2019-03-02T14:26:17.221Z,0.73
2019-03-02T14:29:15.938Z,1.00
2019-03-02T14:32:05.959Z,0.57
2019-03-02T14:34:56.079Z,0.70
2019-03-02T14:37:28.432Z,0.90
2019-03-02T14:40:18.605Z,1.07
2019-03-02T14:43:19.927Z,0.63
2019-03-02T14:46:19.109Z,0.80
2019-03-02T14:49:27.963Z,0.70
2019-03-02T14:52:33.311Z,0.80
2019-03-02T14:55:20.692Z,0.90
2019-03-02T14:58:13.509Z,0.80
2019-03-02T15:01:04.260Z,0.80
2019-03-02T15:03:36.512Z,1.00
2019-03-02T15:06:29.265Z,0.67
2019-03-02T15:09:22.451Z,0.70
2019-03-02T15:12:21.153Z,0.70
2019-03-02T15:15:20.260Z,0.80
2019-03-02T15:18:16.978Z,0.90
2019-03-02T15:21:12.981Z,0.50
2019-03-02T15:24:20.419Z,0.80
2019-03-02T15:27:20.166Z,0.57
2019-03-02T15:30:12.017Z,0.70
2019-03-02T15:33:16.932Z,1.00
2019-03-02T15:36:10.919Z,0.70
2019-03-02T15:38:58.913Z,0.90
2019-03-02T15:41:48.681Z,0.60
2019-03-02T15:44:38.604Z,0.60
2019-03-02T15:47:28.505Z,0.60
2019-03-02T15:50:37.032Z,0.80
2019-03-02T15:53:27.082Z,0.60
2019-03-02T15:56:20.037Z,0.53
2019-03-02T15:59:20.325Z,0.70
2019-03-02T16:02:26.086Z,0.63
2019-03-02T16:05:28.074Z,0.60
2019-03-02T16:08:23.941Z,1.00
2019-03-02T16:11:24.169Z,0.70
2019-03-02T16:14:25.813Z,0.50
2019-03-02T16:17:24.527Z,0.70
2019-03-02T16:20:02.351Z,0.63
2019-03-02T16:22:54.010Z,0.70
2019-03-02T16:25:43.654Z,0.60
2019-03-02T16:28:33.176Z,0.60
2019-03-02T16:31:41.217Z,0.70
2019-03-02T16:34:29.040Z,0.60
2019-03-02T16:37:35.151Z,0.60
2019-03-02T16:40:28.314Z,0.80
2019-03-02T16:43:33.722Z,0.63
2019-03-02T16:46:29.739Z,1.03
2019-03-02T16:49:36.882Z,0.70
2019-03-02T16:52:29.667Z,0.60
2019-03-02T16:55:22.550Z,0.90
2019-03-02T16:58:13.906Z,0.70
2019-03-02T17:01:13.279Z,0.70
2019-03-02T17:04:06.055Z,0.93
2019-03-02T17:06:59.102Z,1.07
2019-03-02T17:09:55.807Z,0.70
2019-03-02T17:12:50.029Z,1.00
2019-03-02T17:15:55.068Z,0.60
2019-03-02T17:18:52.108Z,0.60
2019-03-02T17:21:52.882Z,0.70
2019-03-02T17:24:45.421Z,0.73
2019-03-02T17:27:54.012Z,0.80
2019-03-02T17:30:45.657Z,0.70
2019-03-02T17:33:35.766Z,0.70
2019-03-02T17:36:42.879Z,0.70
2019-03-02T17:39:35.964Z,0.77
2019-03-02T17:42:28.185Z,0.60
2019-03-02T17:45:35.384Z,0.60
2019-03-02T17:48:40.515Z,0.70
2019-03-02T17:51:32.000Z,0.67
2019-03-02T17:54:42.481Z,0.67
2019-03-02T17:57:43.159Z,0.97
2019-03-02T18:00:33.133Z,0.93
2019-03-02T18:03:24.379Z,0.73
2019-03-02T18:06:20.430Z,0.77
2019-03-02T18:09:10.852Z,1.00
2019-03-02T18:12:03.382Z,1.10
2019-03-02T18:15:09.011Z,0.80
2019-03-02T18:17:58.942Z,0.80
2019-03-02T18:20:47.420Z,0.80
2019-03-02T18:23:36.058Z,0.90
2019-03-02T18:26:25.278Z,0.70
2019-03-02T18:29:13.450Z,0.63
2019-03-02T18:32:02.262Z,0.80
2019-03-02T18:34:51.261Z,0.90
2019-03-02T18:37:39.966Z,0.63
2019-03-02T18:40:28.364Z,0.80
2019-03-02T18:43:16.410Z,0.77
2019-03-02T18:46:04.688Z,0.83
2019-03-02T18:49:13.221Z,0.80
2019-03-02T18:52:21.349Z,0.77
2019-03-02T18:55:07.988Z,1.07
2019-03-02T18:57:58.346Z,0.97
2019-03-02T19:00:46.793Z,0.80
2019-03-02T19:03:34.795Z,0.90
2019-03-02T19:06:23.095Z,0.83
2019-03-02T19:09:12.853Z,0.90
2019-03-02T19:12:01.060Z,0.90
2019-03-02T19:14:49.295Z,1.20
2019-03-02T19:17:47.704Z,1.17
2019-03-02T19:20:36.066Z,1.03
2019-03-02T19:23:24.540Z,0.83
2019-03-02T19:26:12.785Z,0.90
2019-03-02T19:29:01.254Z,0.97
2019-03-02T19:31:50.310Z,1.20
2019-03-02T19:34:38.795Z,1.20
2019-03-02T19:37:27.180Z,1.40
2019-03-02T19:40:18.272Z,1.00
2019-03-02T19:43:06.753Z,0.93
2019-03-02T19:45:56.992Z,0.90
2019-03-02T19:48:45.443Z,0.80
2019-03-02T19:51:33.958Z,1.10
2019-03-02T19:54:22.447Z,1.07
2019-03-02T19:57:10.701Z,0.97
2019-03-02T19:59:59.104Z,0.80
2019-03-02T20:02:48.019Z,0.93
2019-03-02T20:05:36.652Z,0.90
2019-03-02T20:08:25.041Z,1.00
2019-03-02T20:10:57.401Z,0.80
2019-03-02T20:13:46.072Z,0.97
2019-03-02T20:16:34.515Z,1.20
2019-03-02T20:19:22.730Z,1.20
2019-03-02T20:22:11.419Z,1.23
2019-03-02T20:25:01.451Z,1.03
2019-03-02T20:27:50.136Z,0.83
2019-03-02T20:30:39.034Z,0.90
2019-03-02T20:33:27.816Z,1.13
2019-03-02T20:36:16.477Z,1.20
2019-03-02T20:39:07.696Z,1.40
2019-03-02T20:41:56.220Z,1.23
2019-03-02T20:44:44.763Z,1.10
2019-03-02T20:47:33.464Z,1.10
2019-03-02T20:50:22.950Z,1.27
2019-03-02T20:53:11.429Z,1.33
2019-03-02T20:55:59.984Z,1.10
2019-03-02T20:58:48.609Z,1.10
2019-03-02T21:01:37.425Z,1.13
2019-03-02T21:04:26.157Z,1.30
2019-03-02T21:07:14.978Z,1.20
2019-03-02T21:10:03.442Z,1.30
2019-03-02T21:12:52.000Z,1.57
2019-03-02T21:15:44.789Z,1.90
2019-03-02T21:18:33.757Z,1.20
2019-03-02T21:21:22.326Z,1.50
2019-03-02T21:24:11.038Z,1.50
2019-03-02T21:26:59.526Z,1.20
2019-03-02T21:29:47.860Z,1.43
2019-03-02T21:32:36.215Z,1.40
2019-03-02T21:35:24.655Z,1.57
2019-03-02T21:38:13.348Z,1.53
2019-03-02T21:41:03.462Z,2.13
2019-03-02T21:43:51.656Z,1.93
2019-03-02T21:46:40.485Z,1.73
2019-03-02T21:49:28.626Z,1.80
2019-03-02T21:52:18.283Z,1.53
2019-03-02T21:55:08.905Z,2.10
2019-03-02T21:57:57.064Z,2.10
2019-03-02T22:00:45.303Z,1.93
2019-03-02T22:03:34.078Z,2.30
2019-03-02T22:06:22.410Z,2.20
2019-03-02T22:09:10.923Z,2.00
2019-03-02T22:11:59.637Z,2.40
2019-03-02T22:14:47.900Z,2.07
2019-03-02T22:17:36.197Z,2.00
2019-03-02T22:20:24.205Z,2.40
2019-03-02T22:23:12.222Z,2.20
2019-03-02T22:26:00.750Z,2.10
2019-03-02T22:28:49.010Z,2.60
2019-03-02T22:31:37.322Z,1.80
2019-03-02T22:34:25.423Z,2.37
2019-03-02T22:37:13.732Z,2.20
2019-03-02T22:40:02.277Z,2.47
2019-03-02T22:42:50.673Z,2.83
2019-03-02T22:45:39.077Z,2.30
2019-03-02T22:48:27.351Z,2.67
2019-03-02T22:51:15.765Z,2.50
2019-03-02T22:54:03.796Z,3.10
2019-03-02T22:56:52.034Z,2.83
2019-03-02T22:59:43.428Z,3.40
2019-03-02T23:02:30.462Z,2.70
2019-03-02T23:05:19.083Z,2.90
2019-03-02T23:08:06.959Z,3.03
2019-03-02T23:10:56.441Z,2.60
2019-03-02T23:13:44.649Z,3.40
2019-03-02T23:16:32.867Z,2.43
2019-03-02T23:19:21.360Z,2.57
2019-03-02T23:22:09.594Z,2.27
2019-03-02T23:24:57.917Z,3.00
2019-03-02T23:27:46.957Z,3.03
2019-03-02T23:30:35.149Z,2.80
2019-03-02T23:33:23.133Z,2.10
2019-03-02T23:36:11.514Z,2.60
2019-03-02T23:38:59.958Z,3.33
2019-03-02T23:41:48.028Z,3.03
2019-03-02T23:44:36.406Z,2.90
2019-03-02T23:47:24.693Z,3.00
2019-03-02T23:50:13.551Z,3.10
2019-03-02T23:53:01.619Z,2.80
2019-03-02T23:55:49.960Z,3.53
2019-03-02T23:58:38.250Z,3.20
